<?xml version="1.0" encoding="UTF-8" ?>
<gpx version="1.1" xmlns:xsi="http://www.w3.org/2001/XMLSchema-instance" 
    xmlns="http://www.topografix.com/GPX/1/1" 
    xsi:schemaLocation="http://www.topografix.com/GPX/1/1 http://www.topografix.com/GPX/1/1/gpx.xsd" 
    creator="Openrunner - https://www.openrunner.com" >	<trk>
						<name>La verticale du Thou - cols-cyclisme.com-14693967</name>
						<trkseg>
					<trkpt lat="45.845510" lon="4.827940">
						<ele>189</ele>
						<time>2024-07-02T18:47:08Z</time>
					</trkpt>
					<trkpt lat="45.845540" lon="4.827700">
						<ele>192</ele>
						<time>2024-07-02T18:47:11Z</time>
					</trkpt>
					<trkpt lat="45.845560" lon="4.827390">
						<ele>196</ele>
						<time>2024-07-02T18:47:15Z</time>
					</trkpt>
					<trkpt lat="45.845530" lon="4.826860">
						<ele>202</ele>
						<time>2024-07-02T18:47:21Z</time>
					</trkpt>
					<trkpt lat="45.845650" lon="4.825950">
						<ele>216</ele>
						<time>2024-07-02T18:47:33Z</time>
					</trkpt>
					<trkpt lat="45.845700" lon="4.825770">
						<ele>218</ele>
						<time>2024-07-02T18:47:35Z</time>
					</trkpt>
					<trkpt lat="45.845880" lon="4.825690">
						<ele>222</ele>
						<time>2024-07-02T18:47:39Z</time>
					</trkpt>
					<trkpt lat="45.846250" lon="4.825700">
						<ele>228</ele>
						<time>2024-07-02T18:47:45Z</time>
					</trkpt>
					<trkpt lat="45.846310" lon="4.825650">
						<ele>229</ele>
						<time>2024-07-02T18:47:47Z</time>
					</trkpt>
					<trkpt lat="45.846400" lon="4.825280">
						<ele>234</ele>
						<time>2024-07-02T18:47:51Z</time>
					</trkpt>
					<trkpt lat="45.846710" lon="4.823630">
						<ele>254</ele>
						<time>2024-07-02T18:48:13Z</time>
					</trkpt>
					<trkpt lat="45.846840" lon="4.823160">
						<ele>263</ele>
						<time>2024-07-02T18:48:19Z</time>
					</trkpt>
					<trkpt lat="45.846810" lon="4.822310">
						<ele>271</ele>
						<time>2024-07-02T18:48:29Z</time>
					</trkpt>
					<trkpt lat="45.846820" lon="4.821860">
						<ele>276</ele>
						<time>2024-07-02T18:48:35Z</time>
					</trkpt>
					<trkpt lat="45.846880" lon="4.821500">
						<ele>282</ele>
						<time>2024-07-02T18:48:40Z</time>
					</trkpt>
					<trkpt lat="45.846930" lon="4.821340">
						<ele>285</ele>
						<time>2024-07-02T18:48:42Z</time>
					</trkpt>
					<trkpt lat="45.846930" lon="4.821260">
						<ele>286</ele>
						<time>2024-07-02T18:48:43Z</time>
					</trkpt>
					<trkpt lat="45.846890" lon="4.821230">
						<ele>285</ele>
						<time>2024-07-02T18:48:44Z</time>
					</trkpt>
					<trkpt lat="45.846790" lon="4.821220">
						<ele>284</ele>
						<time>2024-07-02T18:48:45Z</time>
					</trkpt>
					<trkpt lat="45.846750" lon="4.821180">
						<ele>284</ele>
						<time>2024-07-02T18:48:46Z</time>
					</trkpt>
					<trkpt lat="45.847010" lon="4.821150">
						<ele>289</ele>
						<time>2024-07-02T18:48:51Z</time>
					</trkpt>
					<trkpt lat="45.847110" lon="4.821190">
						<ele>290</ele>
						<time>2024-07-02T18:48:53Z</time>
					</trkpt>
					<trkpt lat="45.847220" lon="4.821310">
						<ele>291</ele>
						<time>2024-07-02T18:48:55Z</time>
					</trkpt>
					<trkpt lat="45.847530" lon="4.821840">
						<ele>294</ele>
						<time>2024-07-02T18:49:04Z</time>
					</trkpt>
					<trkpt lat="45.847640" lon="4.822080">
						<ele>298</ele>
						<time>2024-07-02T18:49:07Z</time>
					</trkpt>
					<trkpt lat="45.847700" lon="4.822330">
						<ele>298</ele>
						<time>2024-07-02T18:49:11Z</time>
					</trkpt>
					<trkpt lat="45.847740" lon="4.822670">
						<ele>297</ele>
						<time>2024-07-02T18:49:15Z</time>
					</trkpt>
					<trkpt lat="45.847780" lon="4.822770">
						<ele>297</ele>
						<time>2024-07-02T18:49:16Z</time>
					</trkpt>
					<trkpt lat="45.847920" lon="4.822920">
						<ele>301</ele>
						<time>2024-07-02T18:49:19Z</time>
					</trkpt>
					<trkpt lat="45.848300" lon="4.823280">
						<ele>311</ele>
						<time>2024-07-02T18:49:27Z</time>
					</trkpt>
					<trkpt lat="45.848350" lon="4.823340">
						<ele>311</ele>
						<time>2024-07-02T18:49:29Z</time>
					</trkpt>
					<trkpt lat="45.848460" lon="4.823660">
						<ele>308</ele>
						<time>2024-07-02T18:49:33Z</time>
					</trkpt>
					<trkpt lat="45.848540" lon="4.823730">
						<ele>308</ele>
						<time>2024-07-02T18:49:35Z</time>
					</trkpt>
					<trkpt lat="45.848680" lon="4.823720">
						<ele>310</ele>
						<time>2024-07-02T18:49:37Z</time>
					</trkpt>
					<trkpt lat="45.849460" lon="4.823510">
						<ele>326</ele>
						<time>2024-07-02T18:49:51Z</time>
					</trkpt>
					<trkpt lat="45.849730" lon="4.823480">
						<ele>330</ele>
						<time>2024-07-02T18:49:56Z</time>
					</trkpt>
					<trkpt lat="45.850220" lon="4.823700">
						<ele>330</ele>
						<time>2024-07-02T18:50:05Z</time>
					</trkpt>
					<trkpt lat="45.850470" lon="4.823750">
						<ele>330</ele>
						<time>2024-07-02T18:50:10Z</time>
					</trkpt>
					<trkpt lat="45.850780" lon="4.823620">
						<ele>335</ele>
						<time>2024-07-02T18:50:15Z</time>
					</trkpt>
					<trkpt lat="45.850950" lon="4.823470">
						<ele>337</ele>
						<time>2024-07-02T18:50:19Z</time>
					</trkpt>
					<trkpt lat="45.851110" lon="4.823270">
						<ele>339</ele>
						<time>2024-07-02T18:50:23Z</time>
					</trkpt>
					<trkpt lat="45.851270" lon="4.822960">
						<ele>344</ele>
						<time>2024-07-02T18:50:28Z</time>
					</trkpt>
					<trkpt lat="45.851630" lon="4.822000">
						<ele>360</ele>
						<time>2024-07-02T18:50:41Z</time>
					</trkpt>
					<trkpt lat="45.851680" lon="4.821830">
						<ele>363</ele>
						<time>2024-07-02T18:50:43Z</time>
					</trkpt>
					<trkpt lat="45.851750" lon="4.821420">
						<ele>370</ele>
						<time>2024-07-02T18:50:49Z</time>
					</trkpt>
					<trkpt lat="45.851860" lon="4.821180">
						<ele>374</ele>
						<time>2024-07-02T18:50:52Z</time>
					</trkpt>
					<trkpt lat="45.852340" lon="4.820770">
						<ele>372</ele>
						<time>2024-07-02T18:51:02Z</time>
					</trkpt>
					<trkpt lat="45.852500" lon="4.820600">
						<ele>372</ele>
						<time>2024-07-02T18:51:06Z</time>
					</trkpt>
					<trkpt lat="45.852580" lon="4.820470">
						<ele>372</ele>
						<time>2024-07-02T18:51:08Z</time>
					</trkpt>
					<trkpt lat="45.852630" lon="4.820310">
						<ele>374</ele>
						<time>2024-07-02T18:51:10Z</time>
					</trkpt>
					<trkpt lat="45.852640" lon="4.820110">
						<ele>378</ele>
						<time>2024-07-02T18:51:12Z</time>
					</trkpt>
					<trkpt lat="45.852530" lon="4.818940">
						<ele>396</ele>
						<time>2024-07-02T18:51:27Z</time>
					</trkpt>
					<trkpt lat="45.852540" lon="4.818330">
						<ele>402</ele>
						<time>2024-07-02T18:51:35Z</time>
					</trkpt>
					<trkpt lat="45.852560" lon="4.818120">
						<ele>407</ele>
						<time>2024-07-02T18:51:37Z</time>
					</trkpt>
					<trkpt lat="45.852620" lon="4.817910">
						<ele>410</ele>
						<time>2024-07-02T18:51:40Z</time>
					</trkpt>
					<trkpt lat="45.852690" lon="4.817730">
						<ele>413</ele>
						<time>2024-07-02T18:51:43Z</time>
					</trkpt>
					<trkpt lat="45.852800" lon="4.817610">
						<ele>415</ele>
						<time>2024-07-02T18:51:45Z</time>
					</trkpt>
					<trkpt lat="45.852880" lon="4.817570">
						<ele>415</ele>
						<time>2024-07-02T18:51:47Z</time>
					</trkpt>
					<trkpt lat="45.852980" lon="4.817580">
						<ele>413</ele>
						<time>2024-07-02T18:51:48Z</time>
					</trkpt>
					<trkpt lat="45.853120" lon="4.817640">
						<ele>411</ele>
						<time>2024-07-02T18:51:51Z</time>
					</trkpt>
					<trkpt lat="45.853670" lon="4.817940">
						<ele>404</ele>
						<time>2024-07-02T18:52:01Z</time>
					</trkpt>
					<trkpt lat="45.853820" lon="4.817970">
						<ele>405</ele>
						<time>2024-07-02T18:52:04Z</time>
					</trkpt>
					<trkpt lat="45.854050" lon="4.817930">
						<ele>408</ele>
						<time>2024-07-02T18:52:08Z</time>
					</trkpt>
					<trkpt lat="45.854390" lon="4.817840">
						<ele>412</ele>
						<time>2024-07-02T18:52:14Z</time>
					</trkpt>
					<trkpt lat="45.854650" lon="4.817730">
						<ele>415</ele>
						<time>2024-07-02T18:52:19Z</time>
					</trkpt>
					<trkpt lat="45.854950" lon="4.817660">
						<ele>416</ele>
						<time>2024-07-02T18:52:25Z</time>
					</trkpt>
					<trkpt lat="45.854830" lon="4.817580">
						<ele>417</ele>
						<time>2024-07-02T18:52:27Z</time>
					</trkpt>
					<trkpt lat="45.854100" lon="4.817460">
						<ele>418</ele>
						<time>2024-07-02T18:52:40Z</time>
					</trkpt>
					<trkpt lat="45.853870" lon="4.817370">
						<ele>418</ele>
						<time>2024-07-02T18:52:44Z</time>
					</trkpt>
					<trkpt lat="45.853060" lon="4.816910">
						<ele>430</ele>
						<time>2024-07-02T18:53:00Z</time>
					</trkpt>
					<trkpt lat="45.852910" lon="4.816860">
						<ele>432</ele>
						<time>2024-07-02T18:53:03Z</time>
					</trkpt>
					<trkpt lat="45.852780" lon="4.816850">
						<ele>433</ele>
						<time>2024-07-02T18:53:05Z</time>
					</trkpt>
					<trkpt lat="45.852550" lon="4.816900">
						<ele>433</ele>
						<time>2024-07-02T18:53:09Z</time>
					</trkpt>
					<trkpt lat="45.852420" lon="4.816980">
						<ele>432</ele>
						<time>2024-07-02T18:53:12Z</time>
					</trkpt>
					<trkpt lat="45.851560" lon="4.817730">
						<ele>428</ele>
						<time>2024-07-02T18:53:29Z</time>
					</trkpt>
					<trkpt lat="45.851400" lon="4.817850">
						<ele>426</ele>
						<time>2024-07-02T18:53:33Z</time>
					</trkpt>
					<trkpt lat="45.851270" lon="4.817900">
						<ele>426</ele>
						<time>2024-07-02T18:53:35Z</time>
					</trkpt>
					<trkpt lat="45.851170" lon="4.817900">
						<ele>426</ele>
						<time>2024-07-02T18:53:37Z</time>
					</trkpt>
					<trkpt lat="45.850970" lon="4.817810">
						<ele>426</ele>
						<time>2024-07-02T18:53:41Z</time>
					</trkpt>
					<trkpt lat="45.850890" lon="4.817720">
						<ele>427</ele>
						<time>2024-07-02T18:53:42Z</time>
					</trkpt>
					<trkpt lat="45.850840" lon="4.817620">
						<ele>427</ele>
						<time>2024-07-02T18:53:44Z</time>
					</trkpt>
					<trkpt lat="45.850790" lon="4.817460">
						<ele>426</ele>
						<time>2024-07-02T18:53:46Z</time>
					</trkpt>
					<trkpt lat="45.850760" lon="4.817250">
						<ele>426</ele>
						<time>2024-07-02T18:53:49Z</time>
					</trkpt>
					<trkpt lat="45.850690" lon="4.816240">
						<ele>428</ele>
						<time>2024-07-02T18:54:01Z</time>
					</trkpt>
					<trkpt lat="45.850710" lon="4.815830">
						<ele>431</ele>
						<time>2024-07-02T18:54:06Z</time>
					</trkpt>
					<trkpt lat="45.850790" lon="4.815150">
						<ele>432</ele>
						<time>2024-07-02T18:54:15Z</time>
					</trkpt>
					<trkpt lat="45.850910" lon="4.814480">
						<ele>434</ele>
						<time>2024-07-02T18:54:24Z</time>
					</trkpt>
					<trkpt lat="45.851030" lon="4.814070">
						<ele>438</ele>
						<time>2024-07-02T18:54:29Z</time>
					</trkpt>
					<trkpt lat="45.851260" lon="4.813520">
						<ele>446</ele>
						<time>2024-07-02T18:54:37Z</time>
					</trkpt>
					<trkpt lat="45.851280" lon="4.813370">
						<ele>446</ele>
						<time>2024-07-02T18:54:39Z</time>
					</trkpt>
					<trkpt lat="45.851270" lon="4.813270">
						<ele>447</ele>
						<time>2024-07-02T18:54:40Z</time>
					</trkpt>
					<trkpt lat="45.851240" lon="4.813180">
						<ele>448</ele>
						<time>2024-07-02T18:54:41Z</time>
					</trkpt>
					<trkpt lat="45.851170" lon="4.813090">
						<ele>449</ele>
						<time>2024-07-02T18:54:43Z</time>
					</trkpt>
					<trkpt lat="45.851040" lon="4.813020">
						<ele>449</ele>
						<time>2024-07-02T18:54:46Z</time>
					</trkpt>
					<trkpt lat="45.850840" lon="4.812990">
						<ele>447</ele>
						<time>2024-07-02T18:54:49Z</time>
					</trkpt>
					<trkpt lat="45.850650" lon="4.813000">
						<ele>447</ele>
						<time>2024-07-02T18:54:52Z</time>
					</trkpt>
					<trkpt lat="45.850090" lon="4.813180">
						<ele>445</ele>
						<time>2024-07-02T18:55:03Z</time>
					</trkpt>
					<trkpt lat="45.849970" lon="4.813190">
						<ele>445</ele>
						<time>2024-07-02T18:55:05Z</time>
					</trkpt>
					<trkpt lat="45.849850" lon="4.813160">
						<ele>444</ele>
						<time>2024-07-02T18:55:07Z</time>
					</trkpt>
					<trkpt lat="45.849750" lon="4.813100">
						<ele>444</ele>
						<time>2024-07-02T18:55:09Z</time>
					</trkpt>
					<trkpt lat="45.849640" lon="4.812990">
						<ele>445</ele>
						<time>2024-07-02T18:55:11Z</time>
					</trkpt>
					<trkpt lat="45.849570" lon="4.812890">
						<ele>445</ele>
						<time>2024-07-02T18:55:13Z</time>
					</trkpt>
					<trkpt lat="45.849450" lon="4.812620">
						<ele>446</ele>
						<time>2024-07-02T18:55:17Z</time>
					</trkpt>
					<trkpt lat="45.849230" lon="4.811860">
						<ele>450</ele>
						<time>2024-07-02T18:55:27Z</time>
					</trkpt>
					<trkpt lat="45.849090" lon="4.811200">
						<ele>456</ele>
						<time>2024-07-02T18:55:36Z</time>
					</trkpt>
					<trkpt lat="45.849020" lon="4.811080">
						<ele>457</ele>
						<time>2024-07-02T18:55:38Z</time>
					</trkpt>
					<trkpt lat="45.848950" lon="4.811020">
						<ele>457</ele>
						<time>2024-07-02T18:55:39Z</time>
					</trkpt>
					<trkpt lat="45.848610" lon="4.810870">
						<ele>457</ele>
						<time>2024-07-02T18:55:46Z</time>
					</trkpt>
					<trkpt lat="45.848500" lon="4.810790">
						<ele>458</ele>
						<time>2024-07-02T18:55:48Z</time>
					</trkpt>
					<trkpt lat="45.848380" lon="4.810670">
						<ele>458</ele>
						<time>2024-07-02T18:55:50Z</time>
					</trkpt>
					<trkpt lat="45.848210" lon="4.810380">
						<ele>460</ele>
						<time>2024-07-02T18:55:55Z</time>
					</trkpt>
					<trkpt lat="45.848130" lon="4.810150">
						<ele>461</ele>
						<time>2024-07-02T18:55:58Z</time>
					</trkpt>
					<trkpt lat="45.848070" lon="4.809910">
						<ele>462</ele>
						<time>2024-07-02T18:56:01Z</time>
					</trkpt>
					<trkpt lat="45.848020" lon="4.809590">
						<ele>464</ele>
						<time>2024-07-02T18:56:05Z</time>
					</trkpt>
					<trkpt lat="45.847970" lon="4.808800">
						<ele>470</ele>
						<time>2024-07-02T18:56:15Z</time>
					</trkpt>
					<trkpt lat="45.847940" lon="4.808650">
						<ele>471</ele>
						<time>2024-07-02T18:56:17Z</time>
					</trkpt>
					<trkpt lat="45.847870" lon="4.808460">
						<ele>471</ele>
						<time>2024-07-02T18:56:20Z</time>
					</trkpt>
					<trkpt lat="45.847640" lon="4.808220">
						<ele>471</ele>
						<time>2024-07-02T18:56:25Z</time>
					</trkpt>
					<trkpt lat="45.847490" lon="4.808210">
						<ele>469</ele>
						<time>2024-07-02T18:56:28Z</time>
					</trkpt>
					<trkpt lat="45.847280" lon="4.808240">
						<ele>470</ele>
						<time>2024-07-02T18:56:31Z</time>
					</trkpt>
					<trkpt lat="45.847070" lon="4.808340">
						<ele>469</ele>
						<time>2024-07-02T18:56:35Z</time>
					</trkpt>
					<trkpt lat="45.846870" lon="4.808480">
						<ele>469</ele>
						<time>2024-07-02T18:56:39Z</time>
					</trkpt>
					<trkpt lat="45.846770" lon="4.808520">
						<ele>469</ele>
						<time>2024-07-02T18:56:41Z</time>
					</trkpt>
					<trkpt lat="45.846660" lon="4.808520">
						<ele>470</ele>
						<time>2024-07-02T18:56:43Z</time>
					</trkpt>
					<trkpt lat="45.846580" lon="4.808490">
						<ele>469</ele>
						<time>2024-07-02T18:56:45Z</time>
					</trkpt>
					<trkpt lat="45.846390" lon="4.808390">
						<ele>469</ele>
						<time>2024-07-02T18:56:48Z</time>
					</trkpt>
					<trkpt lat="45.846290" lon="4.808310">
						<ele>469</ele>
						<time>2024-07-02T18:56:50Z</time>
					</trkpt>
					<trkpt lat="45.846070" lon="4.808050">
						<ele>471</ele>
						<time>2024-07-02T18:56:55Z</time>
					</trkpt>
					<trkpt lat="45.845730" lon="4.807500">
						<ele>474</ele>
						<time>2024-07-02T18:57:04Z</time>
					</trkpt>
					<trkpt lat="45.845670" lon="4.807340">
						<ele>476</ele>
						<time>2024-07-02T18:57:07Z</time>
					</trkpt>
					<trkpt lat="45.845630" lon="4.807150">
						<ele>478</ele>
						<time>2024-07-02T18:57:09Z</time>
					</trkpt>
					<trkpt lat="45.845560" lon="4.806230">
						<ele>489</ele>
						<time>2024-07-02T18:57:21Z</time>
					</trkpt>
					<trkpt lat="45.845520" lon="4.806090">
						<ele>490</ele>
						<time>2024-07-02T18:57:22Z</time>
					</trkpt>
					<trkpt lat="45.845450" lon="4.806000">
						<ele>491</ele>
						<time>2024-07-02T18:57:24Z</time>
					</trkpt>
					<trkpt lat="45.845360" lon="4.805980">
						<ele>491</ele>
						<time>2024-07-02T18:57:26Z</time>
					</trkpt>
					<trkpt lat="45.845190" lon="4.806060">
						<ele>490</ele>
						<time>2024-07-02T18:57:29Z</time>
					</trkpt>
					<trkpt lat="45.844820" lon="4.806420">
						<ele>484</ele>
						<time>2024-07-02T18:57:37Z</time>
					</trkpt>
					<trkpt lat="45.844660" lon="4.806540">
						<ele>484</ele>
						<time>2024-07-02T18:57:40Z</time>
					</trkpt>
					<trkpt lat="45.844440" lon="4.806620">
						<ele>484</ele>
						<time>2024-07-02T18:57:44Z</time>
					</trkpt>
					<trkpt lat="45.844080" lon="4.806670">
						<ele>486</ele>
						<time>2024-07-02T18:57:50Z</time>
					</trkpt>
					<trkpt lat="45.843930" lon="4.806640">
						<ele>486</ele>
						<time>2024-07-02T18:57:53Z</time>
					</trkpt>
					<trkpt lat="45.843820" lon="4.806590">
						<ele>487</ele>
						<time>2024-07-02T18:57:55Z</time>
					</trkpt>
					<trkpt lat="45.843470" lon="4.806320">
						<ele>489</ele>
						<time>2024-07-02T18:58:02Z</time>
					</trkpt>
					<trkpt lat="45.843310" lon="4.806210">
						<ele>490</ele>
						<time>2024-07-02T18:58:05Z</time>
					</trkpt>
					<trkpt lat="45.842840" lon="4.806010">
						<ele>491</ele>
						<time>2024-07-02T18:58:14Z</time>
					</trkpt>
					<trkpt lat="45.842740" lon="4.805940">
						<ele>492</ele>
						<time>2024-07-02T18:58:16Z</time>
					</trkpt>
					<trkpt lat="45.842470" lon="4.805670">
						<ele>493</ele>
						<time>2024-07-02T18:58:22Z</time>
					</trkpt>
					<trkpt lat="45.842150" lon="4.805270">
						<ele>494</ele>
						<time>2024-07-02T18:58:30Z</time>
					</trkpt>
					<trkpt lat="45.842030" lon="4.805070">
						<ele>496</ele>
						<time>2024-07-02T18:58:33Z</time>
					</trkpt>
					<trkpt lat="45.841980" lon="4.804840">
						<ele>499</ele>
						<time>2024-07-02T18:58:36Z</time>
					</trkpt>
					<trkpt lat="45.841940" lon="4.804320">
						<ele>506</ele>
						<time>2024-07-02T18:58:42Z</time>
					</trkpt>
					<trkpt lat="45.841860" lon="4.804180">
						<ele>508</ele>
						<time>2024-07-02T18:58:45Z</time>
					</trkpt>
					<trkpt lat="45.841790" lon="4.804120">
						<ele>508</ele>
						<time>2024-07-02T18:58:46Z</time>
					</trkpt>
					<trkpt lat="45.841710" lon="4.804100">
						<ele>508</ele>
						<time>2024-07-02T18:58:47Z</time>
					</trkpt>
					<trkpt lat="45.841590" lon="4.804120">
						<ele>508</ele>
						<time>2024-07-02T18:58:50Z</time>
					</trkpt>
					<trkpt lat="45.841220" lon="4.804390">
						<ele>505</ele>
						<time>2024-07-02T18:58:57Z</time>
					</trkpt>
					<trkpt lat="45.841050" lon="4.804430">
						<ele>505</ele>
						<time>2024-07-02T18:59:00Z</time>
					</trkpt>
					<trkpt lat="45.840740" lon="4.804420">
						<ele>506</ele>
						<time>2024-07-02T18:59:06Z</time>
					</trkpt>
					<trkpt lat="45.840470" lon="4.804350">
						<ele>506</ele>
						<time>2024-07-02T18:59:10Z</time>
					</trkpt>
					<trkpt lat="45.839850" lon="4.804080">
						<ele>506</ele>
						<time>2024-07-02T18:59:22Z</time>
					</trkpt>
					<trkpt lat="45.839680" lon="4.803950">
						<ele>506</ele>
						<time>2024-07-02T18:59:25Z</time>
					</trkpt>
					<trkpt lat="45.839430" lon="4.803710">
						<ele>507</ele>
						<time>2024-07-02T18:59:31Z</time>
					</trkpt>
					<trkpt lat="45.839350" lon="4.803580">
						<ele>508</ele>
						<time>2024-07-02T18:59:33Z</time>
					</trkpt>
					<trkpt lat="45.839160" lon="4.802960">
						<ele>513</ele>
						<time>2024-07-02T18:59:41Z</time>
					</trkpt>
					<trkpt lat="45.838760" lon="4.801770">
						<ele>518</ele>
						<time>2024-07-02T18:59:58Z</time>
					</trkpt>
					<trkpt lat="45.838660" lon="4.801340">
						<ele>520</ele>
						<time>2024-07-02T19:00:03Z</time>
					</trkpt>
					<trkpt lat="45.838400" lon="4.799990">
						<ele>523</ele>
						<time>2024-07-02T19:00:21Z</time>
					</trkpt>
					<trkpt lat="45.838330" lon="4.799800">
						<ele>524</ele>
						<time>2024-07-02T19:00:23Z</time>
					</trkpt>
					<trkpt lat="45.838240" lon="4.799640">
						<ele>524</ele>
						<time>2024-07-02T19:00:26Z</time>
					</trkpt>
					<trkpt lat="45.838150" lon="4.799530">
						<ele>524</ele>
						<time>2024-07-02T19:00:28Z</time>
					</trkpt>
					<trkpt lat="45.837840" lon="4.799340">
						<ele>524</ele>
						<time>2024-07-02T19:00:34Z</time>
					</trkpt>
					<trkpt lat="45.837760" lon="4.799270">
						<ele>524</ele>
						<time>2024-07-02T19:00:36Z</time>
					</trkpt>
					<trkpt lat="45.837710" lon="4.799170">
						<ele>524</ele>
						<time>2024-07-02T19:00:37Z</time>
					</trkpt>
					<trkpt lat="45.838380" lon="4.798920">
						<ele>531</ele>
						<time>2024-07-02T19:00:49Z</time>
					</trkpt>
					<trkpt lat="45.838620" lon="4.798910">
						<ele>536</ele>
						<time>2024-07-02T19:00:54Z</time>
					</trkpt>
					<trkpt lat="45.838970" lon="4.798990">
						<ele>542</ele>
						<time>2024-07-02T19:01:00Z</time>
					</trkpt>
					<trkpt lat="45.839160" lon="4.799120">
						<ele>544</ele>
						<time>2024-07-02T19:01:04Z</time>
					</trkpt>
					<trkpt lat="45.839370" lon="4.799340">
						<ele>547</ele>
						<time>2024-07-02T19:01:08Z</time>
					</trkpt>
					<trkpt lat="45.839500" lon="4.799550">
						<ele>548</ele>
						<time>2024-07-02T19:01:12Z</time>
					</trkpt>
					<trkpt lat="45.839620" lon="4.799830">
						<ele>549</ele>
						<time>2024-07-02T19:01:16Z</time>
					</trkpt>
					<trkpt lat="45.839780" lon="4.800470">
						<ele>550</ele>
						<time>2024-07-02T19:01:24Z</time>
					</trkpt>
					<trkpt lat="45.839810" lon="4.800570">
						<ele>550</ele>
						<time>2024-07-02T19:01:26Z</time>
					</trkpt>
					<trkpt lat="45.839940" lon="4.800740">
						<ele>552</ele>
						<time>2024-07-02T19:01:29Z</time>
					</trkpt>
					<trkpt lat="45.840040" lon="4.800800">
						<ele>553</ele>
						<time>2024-07-02T19:01:31Z</time>
					</trkpt>
					<trkpt lat="45.840130" lon="4.800820">
						<ele>554</ele>
						<time>2024-07-02T19:01:32Z</time>
					</trkpt>
					<trkpt lat="45.840320" lon="4.800830">
						<ele>555</ele>
						<time>2024-07-02T19:01:36Z</time>
					</trkpt>
					<trkpt lat="45.840560" lon="4.800790">
						<ele>557</ele>
						<time>2024-07-02T19:01:40Z</time>
					</trkpt>
					<trkpt lat="45.840760" lon="4.800720">
						<ele>560</ele>
						<time>2024-07-02T19:01:44Z</time>
					</trkpt>
					<trkpt lat="45.840980" lon="4.800600">
						<ele>562</ele>
						<time>2024-07-02T19:01:48Z</time>
					</trkpt>
					<trkpt lat="45.841740" lon="4.800100">
						<ele>568</ele>
						<time>2024-07-02T19:02:03Z</time>
					</trkpt>
					<trkpt lat="45.841980" lon="4.799970">
						<ele>569</ele>
						<time>2024-07-02T19:02:07Z</time>
					</trkpt>
					<trkpt lat="45.842170" lon="4.799890">
						<ele>570</ele>
						<time>2024-07-02T19:02:11Z</time>
					</trkpt>
					<trkpt lat="45.842280" lon="4.799780">
						<ele>572</ele>
						<time>2024-07-02T19:02:13Z</time>
					</trkpt>
					<trkpt lat="45.842310" lon="4.799690">
						<ele>573</ele>
						<time>2024-07-02T19:02:15Z</time>
					</trkpt>
					<trkpt lat="45.842310" lon="4.799580">
						<ele>574</ele>
						<time>2024-07-02T19:02:16Z</time>
					</trkpt>
					<trkpt lat="45.842260" lon="4.799440">
						<ele>576</ele>
						<time>2024-07-02T19:02:18Z</time>
					</trkpt>
					<trkpt lat="45.841970" lon="4.799180">
						<ele>579</ele>
						<time>2024-07-02T19:02:24Z</time>
					</trkpt>
					<trkpt lat="45.841840" lon="4.799020">
						<ele>582</ele>
						<time>2024-07-02T19:02:27Z</time>
					</trkpt>
					<trkpt lat="45.841760" lon="4.798810">
						<ele>585</ele>
						<time>2024-07-02T19:02:30Z</time>
					</trkpt>
					<trkpt lat="45.841720" lon="4.798460">
						<ele>590</ele>
						<time>2024-07-02T19:02:34Z</time>
					</trkpt>
					<trkpt lat="45.841650" lon="4.798050">
						<ele>594</ele>
						<time>2024-07-02T19:02:40Z</time>
					</trkpt>
					<trkpt lat="45.841560" lon="4.797790">
						<ele>596</ele>
						<time>2024-07-02T19:02:43Z</time>
					</trkpt>
					</trkseg>
				</trk>
			</gpx>